sensor_id;sensor_type;location;lat;lon;timestamp;pressure;altitude;pressure_sealevel;temperature;humidity
45253;BME280;63171;50.520;30.486;2023-03-09T00:00:02;98691.25;;;5.53;82.85
45253;BME280;63171;50.520;30.486;2023-03-09T00:01:01;98688.25;;;5.45;82.75
45253;BME280;63171;50.520;30.486;2023-03-09T00:01:52;98684.81;;;5.45;82.63
45253;BME280;63171;50.520;30.486;2023-03-09T00:02:43;98689.00;;;5.47;82.79
45253;BME280;63171;50.520;30.486;2023-03-09T00:03:35;98678.59;;;5.47;82.50
45253;BME280;63171;50.520;30.486;2023-03-09T00:04:26;98677.78;;;5.47;82.59
45253;BME280;63171;50.520;30.486;2023-03-09T00:05:16;98676.31;;;5.43;82.47
45253;BME280;63171;50.520;30.486;2023-03-09T00:06:06;98670.72;;;5.20;82.06
45253;BME280;63171;50.520;30.486;2023-03-09T00:06:56;98679.69;;;5.00;82.08
45253;BME280;63171;50.520;30.486;2023-03-09T00:07:47;98669.94;;;5.04;82.30
45253;BME280;63171;50.520;30.486;2023-03-09T00:08:37;98670.88;;;5.03;82.00
45253;BME280;63171;50.520;30.486;2023-03-09T00:09:28;98657.91;;;5.03;82.15
45253;BME280;63171;50.520;30.486;2023-03-09T00:10:18;98663.94;;;5.03;82.19
45253;BME280;63171;50.520;30.486;2023-03-09T00:11:09;98660.66;;;4.86;82.07
45253;BME280;63171;50.520;30.486;2023-03-09T00:11:59;98661.56;;;4.70;81.72
45253;BME280;63171;50.520;30.486;2023-03-09T00:12:51;98652.94;;;4.70;81.77
45253;BME280;63171;50.520;30.486;2023-03-09T00:13:41;98645.31;;;4.67;82.14
45253;BME280;63171;50.520;30.486;2023-03-09T00:14:31;98646.69;;;4.58;81.97
45253;BME280;63171;50.520;30.486;2023-03-09T00:15:21;98644.34;;;4.54;82.03
45253;BME280;63171;50.520;30.486;2023-03-09T00:16:13;98645.13;;;4.56;81.98
45253;BME280;63171;50.520;30.486;2023-03-09T00:17:03;98638.09;;;4.58;82.12
45253;BME280;63171;50.520;30.486;2023-03-09T00:17:54;98642.91;;;4.64;82.43
45253;BME280;63171;50.520;30.486;2023-03-09T00:18:44;98637.72;;;4.64;81.95
45253;BME280;63171;50.520;30.486;2023-03-09T00:19:35;98627.44;;;4.62;82.00
45253;BME280;63171;50.520;30.486;2023-03-09T00:20:24;98632.19;;;4.70;82.62
45253;BME280;63171;50.520;30.486;2023-03-09T00:21:15;98625.06;;;4.73;82.45
45253;BME280;63171;50.520;30.486;2023-03-09T00:22:23;98618.94;;;4.74;82.45
45253;BME280;63171;50.520;30.486;2023-03-09T00:23:14;98622.38;;;4.75;82.44
45253;BME280;63171;50.520;30.486;2023-03-09T00:24:09;98618.13;;;4.74;82.54
45253;BME280;63171;50.520;30.486;2023-03-09T00:24:59;98622.19;;;4.78;82.27
45253;BME280;63171;50.520;30.486;2023-03-09T00:25:49;98611.59;;;4.67;82.20
45253;BME280;63171;50.520;30.486;2023-03-09T00:26:41;98618.16;;;4.58;82.16
45253;BME280;63171;50.520;30.486;2023-03-09T00:27:32;98606.22;;;4.56;82.30
45253;BME280;63171;50.520;30.486;2023-03-09T00:28:23;98608.44;;;4.62;82.39
45253;BME280;63171;50.520;30.486;2023-03-09T00:29:13;98602.34;;;4.63;82.09
45253;BME280;63171;50.520;30.486;2023-03-09T00:30:05;98595.78;;;4.71;82.33
45253;BME280;63171;50.520;30.486;2023-03-09T00:30:59;98588.38;;;4.80;82.48
45253;BME280;63171;50.520;30.486;2023-03-09T00:31:50;98584.50;;;4.72;82.70
45253;BME280;63171;50.520;30.486;2023-03-09T00:32:40;98580.97;;;4.73;82.59
45253;BME280;63171;50.520;30.486;2023-03-09T00:33:31;98576.53;;;4.75;82.57
45253;BME280;63171;50.520;30.486;2023-03-09T00:34:23;98572.66;;;4.83;82.82
45253;BME280;63171;50.520;30.486;2023-03-09T00:35:13;98572.56;;;4.84;82.87
45253;BME280;63171;50.520;30.486;2023-03-09T00:36:04;98571.63;;;4.85;82.86
45253;BME280;63171;50.520;30.486;2023-03-09T00:36:55;98559.78;;;4.81;82.85
45253;BME280;63171;50.520;30.486;2023-03-09T00:37:45;98560.50;;;4.69;82.71
45253;BME280;63171;50.520;30.486;2023-03-09T00:38:36;98566.03;;;4.63;82.85
45253;BME280;63171;50.520;30.486;2023-03-09T00:39:25;98550.78;;;4.72;82.62
45253;BME280;63171;50.520;30.486;2023-03-09T00:40:16;98548.16;;;4.58;82.79
45253;BME280;63171;50.520;30.486;2023-03-09T00:41:07;98547.34;;;4.58;83.12
45253;BME280;63171;50.520;30.486;2023-03-09T00:41:58;98539.28;;;4.62;82.73
45253;BME280;63171;50.520;30.486;2023-03-09T00:42:48;98544.13;;;4.68;83.30
45253;BME280;63171;50.520;30.486;2023-03-09T00:43:40;98537.25;;;4.67;83.05
45253;BME280;63171;50.520;30.486;2023-03-09T00:44:30;98537.91;;;4.71;83.37
45253;BME280;63171;50.520;30.486;2023-03-09T00:45:21;98536.25;;;4.70;83.08
45253;BME280;63171;50.520;30.486;2023-03-09T00:46:14;98527.25;;;4.75;83.54
45253;BME280;63171;50.520;30.486;2023-03-09T00:47:05;98533.47;;;4.73;83.34
45253;BME280;63171;50.520;30.486;2023-03-09T00:47:54;98527.72;;;4.68;83.58
45253;BME280;63171;50.520;30.486;2023-03-09T00:48:45;98529.38;;;4.69;83.63
45253;BME280;63171;50.520;30.486;2023-03-09T00:49:35;98522.78;;;4.63;83.68
45253;BME280;63171;50.520;30.486;2023-03-09T00:50:26;98520.09;;;4.65;83.52
45253;BME280;63171;50.520;30.486;2023-03-09T00:51:16;98527.63;;;4.69;83.73
45253;BME280;63171;50.520;30.486;2023-03-09T00:52:07;98524.38;;;4.66;83.84
45253;BME280;63171;50.520;30.486;2023-03-09T00:52:57;98525.03;;;4.69;83.85
45253;BME280;63171;50.520;30.486;2023-03-09T00:53:48;98516.78;;;4.77;84.34
45253;BME280;63171;50.520;30.486;2023-03-09T00:54:38;98504.44;;;4.81;84.32
45253;BME280;63171;50.520;30.486;2023-03-09T00:55:29;98505.22;;;4.83;84.57
45253;BME280;63171;50.520;30.486;2023-03-09T00:56:21;98505.75;;;4.88;84.51
45253;BME280;63171;50.520;30.486;2023-03-09T00:57:15;98509.63;;;4.81;84.24
45253;BME280;63171;50.520;30.486;2023-03-09T00:58:05;98505.56;;;4.77;84.60
45253;BME280;63171;50.520;30.486;2023-03-09T00:58:57;98492.06;;;4.71;84.36
45253;BME280;63171;50.520;30.486;2023-03-09T00:59:47;98502.25;;;4.74;84.63
45253;BME280;63171;50.520;30.486;2023-03-09T01:02:31;98505.75;;;4.73;85.19
45253;BME280;63171;50.520;30.486;2023-03-09T01:03:24;98502.78;;;4.80;84.84
45253;BME280;63171;50.520;30.486;2023-03-09T01:04:14;98503.25;;;4.72;85.00
45253;BME280;63171;50.520;30.486;2023-03-09T01:05:05;98493.09;;;4.69;85.03
45253;BME280;63171;50.520;30.486;2023-03-09T01:05:58;98496.50;;;4.84;85.11
45253;BME280;63171;50.520;30.486;2023-03-09T01:06:48;98487.81;;;4.85;85.42
45253;BME280;63171;50.520;30.486;2023-03-09T01:07:39;98497.88;;;4.75;85.25
45253;BME280;63171;50.520;30.486;2023-03-09T01:08:31;98496.50;;;4.69;85.47
45253;BME280;63171;50.520;30.486;2023-03-09T01:09:22;98489.91;;;4.78;85.28
45253;BME280;63171;50.520;30.486;2023-03-09T01:10:12;98488.81;;;4.82;85.59
45253;BME280;63171;50.520;30.486;2023-03-09T01:11:05;98486.50;;;4.78;85.46
45253;BME280;63171;50.520;30.486;2023-03-09T01:11:56;98488.97;;;4.79;85.51
45253;BME280;63171;50.520;30.486;2023-03-09T01:12:46;98488.72;;;4.84;85.67
45253;BME280;63171;50.520;30.486;2023-03-09T01:13:37;98481.31;;;4.78;85.84
45253;BME280;63171;50.520;30.486;2023-03-09T01:14:28;98483.06;;;4.77;85.71
45253;BME280;63171;50.520;30.486;2023-03-09T01:15:19;98484.00;;;4.76;85.73
45253;BME280;63171;50.520;30.486;2023-03-09T01:16:09;98483.25;;;4.74;85.95
45253;BME280;63171;50.520;30.486;2023-03-09T01:17:01;98477.03;;;4.77;85.83
45253;BME280;63171;50.520;30.486;2023-03-09T01:17:50;98480.47;;;4.77;85.92
45253;BME280;63171;50.520;30.486;2023-03-09T01:18:41;98482.88;;;4.80;86.25
45253;BME280;63171;50.520;30.486;2023-03-09T01:19:31;98474.72;;;4.86;86.42
45253;BME280;63171;50.520;30.486;2023-03-09T01:20:22;98487.69;;;5.00;86.53
45253;BME280;63171;50.520;30.486;2023-03-09T01:21:13;98486.03;;;4.99;86.42
45253;BME280;63171;50.520;30.486;2023-03-09T01:22:04;98484.91;;;4.89;86.63
45253;BME280;63171;50.520;30.486;2023-03-09T01:22:54;98481.28;;;4.92;86.61
45253;BME280;63171;50.520;30.486;2023-03-09T01:23:44;98471.09;;;4.89;86.38
45253;BME280;63171;50.520;30.486;2023-03-09T01:24:34;98479.91;;;4.86;86.46
45253;BME280;63171;50.520;30.486;2023-03-09T01:25:25;98475.47;;;4.88;86.80
45253;BME280;63171;50.520;30.486;2023-03-09T01:26:16;98467.88;;;4.85;86.74
45253;BME280;63171;50.520;30.486;2023-03-09T01:27:07;98480.75;;;4.87;86.62
45253;BME280;63171;50.520;30.486;2023-03-09T01:27:58;98472.22;;;4.85;86.80
45253;BME280;63171;50.520;30.486;2023-03-09T01:28:49;98475.19;;;4.79;86.65
45253;BME280;63171;50.520;30.486;2023-03-09T01:29:40;98470.56;;;4.69;86.67
45253;BME280;63171;50.520;30.486;2023-03-09T01:30:31;98460.84;;;4.73;86.73
45253;BME280;63171;50.520;30.486;2023-03-09T01:31:21;98473.72;;;4.74;86.88
45253;BME280;63171;50.520;30.486;2023-03-09T01:32:12;98474.44;;;4.77;87.15
45253;BME280;63171;50.520;30.486;2023-03-09T01:33:01;98464.81;;;4.79;87.07
45253;BME280;63171;50.520;30.486;2023-03-09T01:33:52;98449.72;;;4.85;87.44
45253;BME280;63171;50.520;30.486;2023-03-09T01:34:42;98461.66;;;4.88;87.48
45253;BME280;63171;50.520;30.486;2023-03-09T01:35:33;98444.53;;;4.85;87.22
45253;BME280;63171;50.520;30.486;2023-03-09T01:36:25;98454.06;;;4.85;87.51
45253;BME280;63171;50.520;30.486;2023-03-09T01:37:15;98441.94;;;4.85;87.35
45253;BME280;63171;50.520;30.486;2023-03-09T01:38:05;98439.53;;;4.82;87.51
45253;BME280;63171;50.520;30.486;2023-03-09T01:38:56;98445.38;;;4.86;87.69
45253;BME280;63171;50.520;30.486;2023-03-09T01:39:48;98437.50;;;4.87;87.82
45253;BME280;63171;50.520;30.486;2023-03-09T01:40:44;98438.50;;;4.85;87.70
45253;BME280;63171;50.520;30.486;2023-03-09T01:41:34;98436.84;;;4.84;87.78
45253;BME280;63171;50.520;30.486;2023-03-09T01:42:25;98442.31;;;4.79;87.70
45253;BME280;63171;50.520;30.486;2023-03-09T01:43:26;98437.31;;;4.76;87.76
45253;BME280;63171;50.520;30.486;2023-03-09T01:44:17;98440.94;;;4.73;87.82
45253;BME280;63171;50.520;30.486;2023-03-09T01:46:49;98439.91;;;4.76;88.35
45253;BME280;63171;50.520;30.486;2023-03-09T01:47:40;98454.91;;;4.85;88.27
45253;BME280;63171;50.520;30.486;2023-03-09T01:48:31;98447.47;;;4.93;88.51
45253;BME280;63171;50.520;30.486;2023-03-09T01:49:25;98448.31;;;4.94;88.74
45253;BME280;63171;50.520;30.486;2023-03-09T01:50:20;98452.84;;;4.90;88.61
45253;BME280;63171;50.520;30.486;2023-03-09T01:51:10;98449.44;;;4.90;88.79
45253;BME280;63171;50.520;30.486;2023-03-09T01:52:05;98449.81;;;4.84;88.75
45253;BME280;63171;50.520;30.486;2023-03-09T01:53:02;98443.81;;;4.83;88.63
45253;BME280;63171;50.520;30.486;2023-03-09T01:53:57;98448.88;;;4.85;88.87
45253;BME280;63171;50.520;30.486;2023-03-09T01:54:52;98437.88;;;4.81;88.90
45253;BME280;63171;50.520;30.486;2023-03-09T01:55:49;98453.44;;;4.81;88.79
45253;BME280;63171;50.520;30.486;2023-03-09T01:56:43;98443.97;;;4.80;89.10
45253;BME280;63171;50.520;30.486;2023-03-09T01:57:38;98448.41;;;4.78;89.01
45253;BME280;63171;50.520;30.486;2023-03-09T01:58:29;98440.19;;;4.86;89.41
45253;BME280;63171;50.520;30.486;2023-03-09T01:59:25;98450.06;;;4.79;89.10
45253;BME280;63171;50.520;30.486;2023-03-09T02:00:19;98444.34;;;4.74;89.13
45253;BME280;63171;50.520;30.486;2023-03-09T02:01:21;98438.44;;;4.72;89.16
45253;BME280;63171;50.520;30.486;2023-03-09T02:02:12;98439.38;;;4.71;89.57
45253;BME280;63171;50.520;30.486;2023-03-09T02:03:15;98444.44;;;4.72;89.41
45253;BME280;63171;50.520;30.486;2023-03-09T02:04:11;98423.59;;;4.74;89.60
45253;BME280;63171;50.520;30.486;2023-03-09T02:05:07;98427.66;;;4.78;89.76
45253;BME280;63171;50.520;30.486;2023-03-09T02:06:02;98437.88;;;4.81;89.94
45253;BME280;63171;50.520;30.486;2023-03-09T02:06:54;98424.63;;;4.86;90.08
45253;BME280;63171;50.520;30.486;2023-03-09T02:07:49;98439.59;;;4.81;90.08
45253;BME280;63171;50.520;30.486;2023-03-09T02:08:48;98433.53;;;4.82;90.14
45253;BME280;63171;50.520;30.486;2023-03-09T02:09:44;98434.34;;;4.82;90.27
45253;BME280;63171;50.520;30.486;2023-03-09T02:10:38;98443.13;;;4.80;90.07
45253;BME280;63171;50.520;30.486;2023-03-09T02:11:29;98441.09;;;4.85;90.10
45253;BME280;63171;50.520;30.486;2023-03-09T02:12:22;98445.06;;;4.90;90.35
45253;BME280;63171;50.520;30.486;2023-03-09T02:13:16;98446.00;;;4.89;90.63
45253;BME280;63171;50.520;30.486;2023-03-09T02:14:08;98443.69;;;4.85;90.45
45253;BME280;63171;50.520;30.486;2023-03-09T02:15:00;98438.41;;;4.86;90.81
45253;BME280;63171;50.520;30.486;2023-03-09T02:15:53;98426.28;;;4.87;90.54
45253;BME280;63171;50.520;30.486;2023-03-09T02:17:01;98437.78;;;4.83;90.80
45253;BME280;63171;50.520;30.486;2023-03-09T02:17:53;98448.78;;;4.86;90.70
45253;BME280;63171;50.520;30.486;2023-03-09T02:18:43;98446.75;;;4.91;91.02
45253;BME280;63171;50.520;30.486;2023-03-09T02:19:40;98450.91;;;4.94;90.89
45253;BME280;63171;50.520;30.486;2023-03-09T02:20:37;98447.41;;;4.95;91.02
45253;BME280;63171;50.520;30.486;2023-03-09T02:21:35;98448.97;;;4.97;91.23
45253;BME280;63171;50.520;30.486;2023-03-09T02:22:28;98444.50;;;4.99;91.23
45253;BME280;63171;50.520;30.486;2023-03-09T02:23:25;98456.16;;;5.07;91.39
45253;BME280;63171;50.520;30.486;2023-03-09T02:24:24;98446.44;;;5.10;91.11
45253;BME280;63171;50.520;30.486;2023-03-09T02:25:22;98444.59;;;5.12;91.38
45253;BME280;63171;50.520;30.486;2023-03-09T02:26:18;98442.34;;;5.06;91.27
45253;BME280;63171;50.520;30.486;2023-03-09T02:27:15;98442.66;;;5.01;91.35
45253;BME280;63171;50.520;30.486;2023-03-09T02:28:06;98440.22;;;5.13;91.57
45253;BME280;63171;50.520;30.486;2023-03-09T02:28:57;98442.53;;;5.17;91.58
45253;BME280;63171;50.520;30.486;2023-03-09T02:29:47;98445.78;;;5.21;91.29
45253;BME280;63171;50.520;30.486;2023-03-09T02:30:41;98432.13;;;5.17;91.20
45253;BME280;63171;50.520;30.486;2023-03-09T02:31:33;98440.97;;;5.15;91.22
45253;BME280;63171;50.520;30.486;2023-03-09T02:32:23;98439.38;;;5.12;91.19
45253;BME280;63171;50.520;30.486;2023-03-09T02:33:23;98431.97;;;5.06;91.38
45253;BME280;63171;50.520;30.486;2023-03-09T02:34:15;98443.59;;;5.00;91.28
45253;BME280;63171;50.520;30.486;2023-03-09T02:35:10;98436.91;;;5.11;91.45
45253;BME280;63171;50.520;30.486;2023-03-09T02:36:03;98429.31;;;5.08;91.09
45253;BME280;63171;50.520;30.486;2023-03-09T02:36:59;98429.00;;;5.12;91.38
45253;BME280;63171;50.520;30.486;2023-03-09T02:37:49;98437.53;;;5.14;91.21
45253;BME280;63171;50.520;30.486;2023-03-09T02:38:44;98428.19;;;5.12;91.25
45253;BME280;63171;50.520;30.486;2023-03-09T02:39:37;98436.78;;;5.12;91.48
45253;BME280;63171;50.520;30.486;2023-03-09T02:40:32;98421.97;;;5.14;91.22
45253;BME280;63171;50.520;30.486;2023-03-09T02:41:27;98442.09;;;5.11;91.03
45253;BME280;63171;50.520;30.486;2023-03-09T02:42:18;98435.88;;;5.13;91.11
45253;BME280;63171;50.520;30.486;2023-03-09T02:43:11;98445.84;;;5.19;91.32
45253;BME280;63171;50.520;30.486;2023-03-09T02:44:03;98442.78;;;5.27;91.53
45253;BME280;63171;50.520;30.486;2023-03-09T02:44:56;98448.91;;;5.26;91.21
45253;BME280;63171;50.520;30.486;2023-03-09T02:45:48;98439.34;;;5.26;91.39
45253;BME280;63171;50.520;30.486;2023-03-09T02:46:39;98426.69;;;5.22;91.36
45253;BME280;63171;50.520;30.486;2023-03-09T02:47:29;98433.63;;;5.21;90.98
45253;BME280;63171;50.520;30.486;2023-03-09T02:48:19;98433.63;;;5.21;91.13
45253;BME280;63171;50.520;30.486;2023-03-09T02:49:09;98441.00;;;5.27;91.19
45253;BME280;63171;50.520;30.486;2023-03-09T02:49:59;98439.78;;;5.33;91.36
45253;BME280;63171;50.520;30.486;2023-03-09T02:50:49;98436.47;;;5.31;91.03
45253;BME280;63171;50.520;30.486;2023-03-09T02:51:40;98432.66;;;5.37;91.26
45253;BME280;63171;50.520;30.486;2023-03-09T02:52:31;98441.16;;;5.39;91.34
45253;BME280;63171;50.520;30.486;2023-03-09T02:53:22;98431.81;;;5.36;90.96
45253;BME280;63171;50.520;30.486;2023-03-09T02:54:12;98437.00;;;5.36;91.13
45253;BME280;63171;50.520;30.486;2023-03-09T02:55:03;98439.72;;;5.34;91.00
45253;BME280;63171;50.520;30.486;2023-03-09T02:55:53;98434.41;;;5.36;91.00
45253;BME280;63171;50.520;30.486;2023-03-09T02:56:44;98436.81;;;5.39;90.91
45253;BME280;63171;50.520;30.486;2023-03-09T02:57:36;98438.06;;;5.46;91.06
45253;BME280;63171;50.520;30.486;2023-03-09T02:58:28;98437.34;;;5.44;90.99
45253;BME280;63171;50.520;30.486;2023-03-09T02:59:18;98439.00;;;5.45;91.08
45253;BME280;63171;50.520;30.486;2023-03-09T03:00:10;98440.75;;;5.45;90.91
45253;BME280;63171;50.520;30.486;2023-03-09T03:01:00;98442.44;;;5.46;90.95
45253;BME280;63171;50.520;30.486;2023-03-09T03:01:53;98435.31;;;5.49;90.86
45253;BME280;63171;50.520;30.486;2023-03-09T03:02:43;98435.31;;;5.49;90.83
45253;BME280;63171;50.520;30.486;2023-03-09T03:03:33;98439.16;;;5.56;90.86
45253;BME280;63171;50.520;30.486;2023-03-09T03:04:24;98440.50;;;5.49;90.47
45253;BME280;63171;50.520;30.486;2023-03-09T03:05:17;98438.72;;;5.50;90.70
45253;BME280;63171;50.520;30.486;2023-03-09T03:06:08;98446.63;;;5.48;90.51
45253;BME280;63171;50.520;30.486;2023-03-09T03:06:59;98437.69;;;5.52;90.60
45253;BME280;63171;50.520;30.486;2023-03-09T03:07:49;98432.50;;;5.52;90.39
45253;BME280;63171;50.520;30.486;2023-03-09T03:08:39;98444.91;;;5.47;90.50
45253;BME280;63171;50.520;30.486;2023-03-09T03:09:33;98439.66;;;5.49;90.40
45253;BME280;63171;50.520;30.486;2023-03-09T03:10:23;98443.50;;;5.56;90.50
45253;BME280;63171;50.520;30.486;2023-03-09T03:11:13;98443.41;;;5.57;90.49
45253;BME280;63171;50.520;30.486;2023-03-09T03:12:05;98437.47;;;5.55;90.44
45253;BME280;63171;50.520;30.486;2023-03-09T03:12:56;98440.59;;;5.60;90.67
45253;BME280;63171;50.520;30.486;2023-03-09T03:13:47;98439.03;;;5.58;90.34
45253;BME280;63171;50.520;30.486;2023-03-09T03:14:37;98440.91;;;5.56;90.18
45253;BME280;63171;50.520;30.486;2023-03-09T03:15:28;98433.97;;;5.56;90.20
45253;BME280;63171;50.520;30.486;2023-03-09T03:16:18;98439.03;;;5.58;90.13
45253;BME280;63171;50.520;30.486;2023-03-09T03:17:07;98435.72;;;5.56;90.12
45253;BME280;63171;50.520;30.486;2023-03-09T03:17:58;98433.44;;;5.51;90.22
45253;BME280;63171;50.520;30.486;2023-03-09T03:18:48;98434.25;;;5.52;89.99
45253;BME280;63171;50.520;30.486;2023-03-09T03:19:38;98433.13;;;5.56;90.20
45253;BME280;63171;50.520;30.486;2023-03-09T03:20:29;98433.03;;;5.57;90.03
45253;BME280;63171;50.520;30.486;2023-03-09T03:21:20;98440.91;;;5.56;89.94
45253;BME280;63171;50.520;30.486;2023-03-09T03:22:12;98446.94;;;5.56;90.03
45253;BME280;63171;50.520;30.486;2023-03-09T03:23:02;98442.47;;;5.58;89.97
45253;BME280;63171;50.520;30.486;2023-03-09T03:24:07;98444.69;;;5.64;90.15
45253;BME280;63171;50.520;30.486;2023-03-09T03:24:59;98438.78;;;5.62;90.04
45253;BME280;63171;50.520;30.486;2023-03-09T03:25:50;98437.69;;;5.52;90.14
45253;BME280;63171;50.520;30.486;2023-03-09T03:26:40;98439.56;;;5.50;89.55
45253;BME280;63171;50.520;30.486;2023-03-09T03:27:34;98427.31;;;5.52;89.54
45253;BME280;63171;50.520;30.486;2023-03-09T03:28:25;98435.09;;;5.52;89.65
45253;BME280;63171;50.520;30.486;2023-03-09T03:29:22;98435.94;;;5.53;89.82
45253;BME280;63171;50.520;30.486;2023-03-09T03:30:14;98436.19;;;5.62;89.58
45253;BME280;63171;50.520;30.486;2023-03-09T03:31:06;98429.63;;;5.70;89.75
45253;BME280;63171;50.520;30.486;2023-03-09T03:31:56;98431.09;;;5.74;89.70
45253;BME280;63171;50.520;30.486;2023-03-09T03:32:49;98431.91;;;5.74;89.85
45253;BME280;63171;50.520;30.486;2023-03-09T03:33:44;98424.22;;;5.73;89.78
45253;BME280;63171;50.520;30.486;2023-03-09T03:34:35;98422.66;;;5.70;89.54
45253;BME280;63171;50.520;30.486;2023-03-09T03:35:26;98426.19;;;5.69;89.63
45253;BME280;63171;50.520;30.486;2023-03-09T03:36:17;98420.69;;;5.74;89.78
45253;BME280;63171;50.520;30.486;2023-03-09T03:37:09;98421.47;;;5.76;89.63
45253;BME280;63171;50.520;30.486;2023-03-09T03:37:59;98425.06;;;5.73;89.51
45253;BME280;63171;50.520;30.486;2023-03-09T03:38:52;98421.13;;;5.68;89.41
45253;BME280;63171;50.520;30.486;2023-03-09T03:39:43;98424.84;;;5.63;89.18
45253;BME280;63171;50.520;30.486;2023-03-09T03:40:32;98419.44;;;5.67;89.43
45253;BME280;63171;50.520;30.486;2023-03-09T03:41:26;98413.81;;;5.60;89.23
45253;BME280;63171;50.520;30.486;2023-03-09T03:42:19;98417.66;;;5.54;89.02
45253;BME280;63171;50.520;30.486;2023-03-09T03:43:09;98427.72;;;5.59;89.21
45253;BME280;63171;50.520;30.486;2023-03-09T03:44:03;98440.84;;;5.70;89.24
45253;BME280;63171;50.520;30.486;2023-03-09T03:44:54;98430.19;;;5.75;89.31
45253;BME280;63171;50.520;30.486;2023-03-09T03:45:43;98432.84;;;5.73;89.33
45253;BME280;63171;50.520;30.486;2023-03-09T03:46:34;98437.13;;;5.74;89.22
45253;BME280;63171;50.520;30.486;2023-03-09T03:47:24;98434.34;;;5.77;89.31
45253;BME280;63171;50.520;30.486;2023-03-09T03:48:15;98437.75;;;5.78;89.59
45253;BME280;63171;50.520;30.486;2023-03-09T03:49:04;98427.47;;;5.76;89.26
45253;BME280;63171;50.520;30.486;2023-03-09T03:49:59;98427.16;;;5.81;89.14
45253;BME280;63171;50.520;30.486;2023-03-09T03:50:50;98422.38;;;5.75;89.31
45253;BME280;63171;50.520;30.486;2023-03-09T03:51:41;98423.81;;;5.66;88.86
45253;BME280;63171;50.520;30.486;2023-03-09T03:52:30;98423.91;;;5.64;89.29
45253;BME280;63171;50.520;30.486;2023-03-09T03:53:21;98407.41;;;5.66;89.00
45253;BME280;63171;50.520;30.486;2023-03-09T03:54:10;98419.31;;;5.55;88.97
45253;BME280;63171;50.520;30.486;2023-03-09T03:55:02;98421.06;;;5.55;88.85
45253;BME280;63171;50.520;30.486;2023-03-09T03:55:53;98412.34;;;5.56;89.03
45253;BME280;63171;50.520;30.486;2023-03-09T03:56:44;98412.13;;;5.59;88.87
45253;BME280;63171;50.520;30.486;2023-03-09T03:57:37;98401.97;;;5.56;88.79
45253;BME280;63171;50.520;30.486;2023-03-09T03:58:29;98403.72;;;5.55;88.86
45253;BME280;63171;50.520;30.486;2023-03-09T03:59:21;98406.22;;;5.57;88.91
45253;BME280;63171;50.520;30.486;2023-03-09T04:00:13;98407.16;;;5.56;88.70
45253;BME280;63171;50.520;30.486;2023-03-09T04:01:06;98402.69;;;5.58;88.82
45253;BME280;63171;50.520;30.486;2023-03-09T04:01:56;98405.19;;;5.59;88.64
45253;BME280;63171;50.520;30.486;2023-03-09T04:02:48;98407.16;;;5.56;88.80
45253;BME280;63171;50.520;30.486;2023-03-09T04:03:44;98394.88;;;5.45;88.51
45253;BME280;63171;50.520;30.486;2023-03-09T04:04:34;98400.88;;;5.46;88.73
45253;BME280;63171;50.520;30.486;2023-03-09T04:05:30;98396.78;;;5.56;88.86
45253;BME280;63171;50.520;30.486;2023-03-09T04:06:19;98395.63;;;5.60;88.82
45253;BME280;63171;50.520;30.486;2023-03-09T04:07:11;98404.81;;;5.66;88.81
45253;BME280;63171;50.520;30.486;2023-03-09T04:08:01;98396.19;;;5.65;88.80
45253;BME280;63171;50.520;30.486;2023-03-09T04:08:52;98392.13;;;5.61;88.76
45253;BME280;63171;50.520;30.486;2023-03-09T04:09:42;98389.72;;;5.58;88.64
45253;BME280;63171;50.520;30.486;2023-03-09T04:10:33;98382.84;;;5.57;88.77
45253;BME280;63171;50.520;30.486;2023-03-09T04:11:25;98383.06;;;5.54;88.63
45253;BME280;63171;50.520;30.486;2023-03-09T04:12:15;98389.81;;;5.56;88.78
45253;BME280;63171;50.520;30.486;2023-03-09T04:13:05;98383.41;;;5.62;88.69
45253;BME280;63171;50.520;30.486;2023-03-09T04:13:56;98387.56;;;5.64;88.70
45253;BME280;63171;50.520;30.486;2023-03-09T04:14:47;98377.69;;;5.70;88.96
45253;BME280;63171;50.520;30.486;2023-03-09T04:15:38;98376.75;;;5.71;88.71
45253;BME280;63171;50.520;30.486;2023-03-09T04:16:28;98373.22;;;5.72;88.83
45253;BME280;63171;50.520;30.486;2023-03-09T04:17:17;98375.63;;;5.62;88.65
45253;BME280;63171;50.520;30.486;2023-03-09T04:18:09;98375.41;;;5.65;88.53
45253;BME280;63171;50.520;30.486;2023-03-09T04:18:59;98368.44;;;5.66;88.69
45253;BME280;63171;50.520;30.486;2023-03-09T04:19:50;98366.16;;;5.61;88.43
45253;BME280;63171;50.520;30.486;2023-03-09T04:20:41;98360.53;;;5.54;88.51
45253;BME280;63171;50.520;30.486;2023-03-09T04:21:33;98356.66;;;5.47;88.47
45253;BME280;63171;50.520;30.486;2023-03-09T04:22:23;98365.31;;;5.48;88.35
45253;BME280;63171;50.520;30.486;2023-03-09T04:23:14;98350.81;;;5.44;88.43
45253;BME280;63171;50.520;30.486;2023-03-09T04:24:07;98357.41;;;5.49;88.40
45253;BME280;63171;50.520;30.486;2023-03-09T04:24:58;98344.53;;;5.48;88.46
45253;BME280;63171;50.520;30.486;2023-03-09T04:25:55;98348.97;;;5.46;88.39
45253;BME280;63171;50.520;30.486;2023-03-09T04:26:48;98357.31;;;5.51;88.50
45253;BME280;63171;50.520;30.486;2023-03-09T04:27:56;98352.53;;;5.57;88.41
45253;BME280;63171;50.520;30.486;2023-03-09T04:28:55;98359.28;;;5.60;88.64
45253;BME280;63171;50.520;30.486;2023-03-09T04:29:46;98358.66;;;5.56;88.40
45253;BME280;63171;50.520;30.486;2023-03-09T04:30:39;98356.88;;;5.57;88.48
45253;BME280;63171;50.520;30.486;2023-03-09T04:31:32;98351.06;;;5.53;88.61
45253;BME280;63171;50.520;30.486;2023-03-09T04:32:24;98360.31;;;5.57;88.60
45253;BME280;63171;50.520;30.486;2023-03-09T04:33:20;98353.25;;;5.59;88.63
45253;BME280;63171;50.520;30.486;2023-03-09T04:34:11;98357.59;;;5.59;88.45
45253;BME280;63171;50.520;30.486;2023-03-09T04:35:03;98358.06;;;5.66;88.40
45253;BME280;63171;50.520;30.486;2023-03-09T04:35:55;98350.78;;;5.71;88.52
45253;BME280;63171;50.520;30.486;2023-03-09T04:36:50;98351.41;;;5.74;88.71
45253;BME280;63171;50.520;30.486;2023-03-09T04:37:40;98344.03;;;5.68;88.15
45253;BME280;63171;50.520;30.486;2023-03-09T04:38:30;98350.06;;;5.69;88.40